sensor_id;sensor_type;location;lat;lon;timestamp;temperature;humidity
62573;DHT22;48626;51.678;5.806;2024-03-02T00:01:17;9.10;99.90
62573;DHT22;48626;51.678;5.806;2024-03-02T00:03:43;9.10;99.90
62573;DHT22;48626;51.678;5.806;2024-03-02T00:06:10;9.10;99.90
62573;DHT22;48626;51.678;5.806;2024-03-02T00:08:35;9.10;99.90
62573;DHT22;48626;51.678;5.806;2024-03-02T00:11:01;9.20;99.90
62573;DHT22;48626;51.678;5.806;2024-03-02T00:13:30;9.20;99.90
62573;DHT22;48626;51.678;5.806;2024-03-02T00:15:57;9.20;99.90
62573;DHT22;48626;51.678;5.806;2024-03-02T00:18:34;9.20;99.90
62573;DHT22;48626;51.678;5.806;2024-03-02T00:21:01;9.20;99.90
62573;DHT22;48626;51.678;5.806;2024-03-02T00:23:30;9.20;99.90
62573;DHT22;48626;51.678;5.806;2024-03-02T00:25:59;9.30;99.90
62573;DHT22;48626;51.678;5.806;2024-03-02T00:28:26;9.30;99.90
62573;DHT22;48626;51.678;5.806;2024-03-02T00:31:03;9.40;99.90
62573;DHT22;48626;51.678;5.806;2024-03-02T00:33:46;9.40;99.90
62573;DHT22;48626;51.678;5.806;2024-03-02T00:36:14;9.50;99.90
62573;DHT22;48626;51.678;5.806;2024-03-02T00:38:51;9.50;99.90
62573;DHT22;48626;51.678;5.806;2024-03-02T00:41:24;9.50;99.90
62573;DHT22;48626;51.678;5.806;2024-03-02T00:44:03;9.50;99.90
62573;DHT22;48626;51.678;5.806;2024-03-02T00:46:34;9.50;99.90
62573;DHT22;48626;51.678;5.806;2024-03-02T00:49:02;9.60;99.90
62573;DHT22;48626;51.678;5.806;2024-03-02T00:51:30;9.60;99.90
62573;DHT22;48626;51.678;5.806;2024-03-02T00:53:59;9.60;99.90
62573;DHT22;48626;51.678;5.806;2024-03-02T00:56:25;9.60;99.90
62573;DHT22;48626;51.678;5.806;2024-03-02T00:58:52;9.60;99.90
62573;DHT22;48626;51.678;5.806;2024-03-02T01:01:18;9.60;99.90
62573;DHT22;48626;51.678;5.806;2024-03-02T01:03:45;9.60;99.90
62573;DHT22;48626;51.678;5.806;2024-03-02T01:06:11;9.60;99.90
62573;DHT22;48626;51.678;5.806;2024-03-02T01:11:04;9.60;99.90
62573;DHT22;48626;51.678;5.806;2024-03-02T01:13:30;9.60;99.90
62573;DHT22;48626;51.678;5.806;2024-03-02T01:15:56;9.60;99.90
62573;DHT22;48626;51.678;5.806;2024-03-02T01:18:26;9.60;99.90
62573;DHT22;48626;51.678;5.806;2024-03-02T01:20:51;9.50;99.90
62573;DHT22;48626;51.678;5.806;2024-03-02T01:23:21;9.50;99.90
62573;DHT22;48626;51.678;5.806;2024-03-02T01:25:47;9.50;99.90
62573;DHT22;48626;51.678;5.806;2024-03-02T01:28:13;9.50;99.90
62573;DHT22;48626;51.678;5.806;2024-03-02T01:30:39;9.50;99.90
62573;DHT22;48626;51.678;5.806;2024-03-02T01:33:05;9.50;99.90
62573;DHT22;48626;51.678;5.806;2024-03-02T01:35:31;9.50;99.90
62573;DHT22;48626;51.678;5.806;2024-03-02T01:37:57;9.50;99.90
62573;DHT22;48626;51.678;5.806;2024-03-02T01:40:23;9.50;99.90
62573;DHT22;48626;51.678;5.806;2024-03-02T01:42:52;9.40;99.90
62573;DHT22;48626;51.678;5.806;2024-03-02T01:45:19;9.40;99.90
62573;DHT22;48626;51.678;5.806;2024-03-02T01:47:45;9.40;99.90
62573;DHT22;48626;51.678;5.806;2024-03-02T01:50:14;9.40;99.90
62573;DHT22;48626;51.678;5.806;2024-03-02T01:52:39;9.40;99.90
62573;DHT22;48626;51.678;5.806;2024-03-02T01:55:06;9.40;99.90
62573;DHT22;48626;51.678;5.806;2024-03-02T01:57:33;9.40;99.90
62573;DHT22;48626;51.678;5.806;2024-03-02T01:59:59;9.40;99.90
62573;DHT22;48626;51.678;5.806;2024-03-02T02:02:25;9.40;99.90
62573;DHT22;48626;51.678;5.806;2024-03-02T02:04:51;9.40;99.90
62573;DHT22;48626;51.678;5.806;2024-03-02T02:07:16;9.40;99.90
62573;DHT22;48626;51.678;5.806;2024-03-02T02:09:43;9.40;99.90
62573;DHT22;48626;51.678;5.806;2024-03-02T02:12:10;9.40;99.90
62573;DHT22;48626;51.678;5.806;2024-03-02T02:14:36;9.40;99.90
62573;DHT22;48626;51.678;5.806;2024-03-02T02:17:02;9.40;99.90
62573;DHT22;48626;51.678;5.806;2024-03-02T02:19:28;9.30;99.90
62573;DHT22;48626;51.678;5.806;2024-03-02T02:21:54;9.30;99.90
62573;DHT22;48626;51.678;5.806;2024-03-02T02:24:20;9.30;99.90
62573;DHT22;48626;51.678;5.806;2024-03-02T02:26:45;9.30;99.90
62573;DHT22;48626;51.678;5.806;2024-03-02T02:29:11;9.30;99.90
62573;DHT22;48626;51.678;5.806;2024-03-02T02:31:41;9.30;99.90
62573;DHT22;48626;51.678;5.806;2024-03-02T02:34:07;9.30;99.90
62573;DHT22;48626;51.678;5.806;2024-03-02T02:36:37;9.30;99.90
62573;DHT22;48626;51.678;5.806;2024-03-02T02:39:04;9.30;99.90
62573;DHT22;48626;51.678;5.806;2024-03-02T02:41:30;9.30;99.90
62573;DHT22;48626;51.678;5.806;2024-03-02T02:43:56;9.20;99.90
62573;DHT22;48626;51.678;5.806;2024-03-02T02:46:22;9.20;99.90
62573;DHT22;48626;51.678;5.806;2024-03-02T02:48:47;9.20;99.90
62573;DHT22;48626;51.678;5.806;2024-03-02T02:51:13;9.20;99.90
62573;DHT22;48626;51.678;5.806;2024-03-02T02:53:39;9.10;99.90
62573;DHT22;48626;51.678;5.806;2024-03-02T02:56:07;9.10;99.90
62573;DHT22;48626;51.678;5.806;2024-03-02T02:58:33;9.10;99.90
62573;DHT22;48626;51.678;5.806;2024-03-02T03:00:58;9.10;99.90
62573;DHT22;48626;51.678;5.806;2024-03-02T03:03:24;9.00;99.90
62573;DHT22;48626;51.678;5.806;2024-03-02T03:05:50;9.00;99.90
62573;DHT22;48626;51.678;5.806;2024-03-02T03:08:15;9.00;99.90
62573;DHT22;48626;51.678;5.806;2024-03-02T03:10:44;9.00;99.90
62573;DHT22;48626;51.678;5.806;2024-03-02T03:13:10;9.00;99.90
62573;DHT22;48626;51.678;5.806;2024-03-02T03:15:36;9.00;99.90
62573;DHT22;48626;51.678;5.806;2024-03-02T03:18:03;8.90;99.90
62573;DHT22;48626;51.678;5.806;2024-03-02T03:20:29;8.90;99.90
62573;DHT22;48626;51.678;5.806;2024-03-02T03:22:56;8.90;99.90
62573;DHT22;48626;51.678;5.806;2024-03-02T03:25:21;8.90;99.90
62573;DHT22;48626;51.678;5.806;2024-03-02T03:27:47;8.90;99.90
62573;DHT22;48626;51.678;5.806;2024-03-02T03:30:13;8.90;99.90
62573;DHT22;48626;51.678;5.806;2024-03-02T03:32:39;8.80;99.90
62573;DHT22;48626;51.678;5.806;2024-03-02T03:35:05;8.80;99.90
62573;DHT22;48626;51.678;5.806;2024-03-02T03:37:31;8.80;99.90
62573;DHT22;48626;51.678;5.806;2024-03-02T03:39:59;8.80;99.90
62573;DHT22;48626;51.678;5.806;2024-03-02T03:42:25;8.70;99.90
62573;DHT22;48626;51.678;5.806;2024-03-02T03:44:50;8.80;99.90
62573;DHT22;48626;51.678;5.806;2024-03-02T03:47:16;8.80;99.90
62573;DHT22;48626;51.678;5.806;2024-03-02T03:49:41;8.80;99.90
62573;DHT22;48626;51.678;5.806;2024-03-02T03:52:07;8.80;99.90
62573;DHT22;48626;51.678;5.806;2024-03-02T03:54:32;8.70;99.90
62573;DHT22;48626;51.678;5.806;2024-03-02T03:56:58;8.80;99.90
62573;DHT22;48626;51.678;5.806;2024-03-02T03:59:24;8.70;99.90
62573;DHT22;48626;51.678;5.806;2024-03-02T04:01:49;8.70;99.90
62573;DHT22;48626;51.678;5.806;2024-03-02T04:04:15;8.80;99.90
62573;DHT22;48626;51.678;5.806;2024-03-02T04:06:41;8.80;99.90
62573;DHT22;48626;51.678;5.806;2024-03-02T04:09:06;8.80;99.90
62573;DHT22;48626;51.678;5.806;2024-03-02T04:11:35;8.70;99.90
62573;DHT22;48626;51.678;5.806;2024-03-02T04:14:01;8.70;99.90
62573;DHT22;48626;51.678;5.806;2024-03-02T04:16:26;8.70;99.90
62573;DHT22;48626;51.678;5.806;2024-03-02T04:18:52;8.70;99.90
62573;DHT22;48626;51.678;5.806;2024-03-02T04:21:18;8.70;99.90
62573;DHT22;48626;51.678;5.806;2024-03-02T04:23:43;8.60;99.90
62573;DHT22;48626;51.678;5.806;2024-03-02T04:26:09;8.60;99.90
62573;DHT22;48626;51.678;5.806;2024-03-02T04:28:34;8.60;99.90
62573;DHT22;48626;51.678;5.806;2024-03-02T04:31:00;8.50;99.90
62573;DHT22;48626;51.678;5.806;2024-03-02T04:33:26;8.50;99.90
62573;DHT22;48626;51.678;5.806;2024-03-02T04:35:51;8.40;99.90
62573;DHT22;48626;51.678;5.806;2024-03-02T04:38:17;8.40;99.90
62573;DHT22;48626;51.678;5.806;2024-03-02T04:40:43;8.30;99.90
62573;DHT22;48626;51.678;5.806;2024-03-02T04:43:08;8.20;99.90
62573;DHT22;48626;51.678;5.806;2024-03-02T04:45:35;8.10;99.90
62573;DHT22;48626;51.678;5.806;2024-03-02T04:48:01;8.10;99.90
62573;DHT22;48626;51.678;5.806;2024-03-02T04:50:27;8.00;99.90
62573;DHT22;48626;51.678;5.806;2024-03-02T04:52:52;8.00;99.90
62573;DHT22;48626;51.678;5.806;2024-03-02T04:55:18;8.00;99.90
62573;DHT22;48626;51.678;5.806;2024-03-02T04:57:52;8.00;99.90
62573;DHT22;48626;51.678;5.806;2024-03-02T05:00:20;8.00;99.90
62573;DHT22;48626;51.678;5.806;2024-03-02T05:02:46;7.90;99.90
62573;DHT22;48626;51.678;5.806;2024-03-02T05:05:12;7.90;99.90
62573;DHT22;48626;51.678;5.806;2024-03-02T05:07:38;7.90;99.90
62573;DHT22;48626;51.678;5.806;2024-03-02T05:10:03;8.00;99.90
62573;DHT22;48626;51.678;5.806;2024-03-02T05:12:29;7.90;99.90
62573;DHT22;48626;51.678;5.806;2024-03-02T05:15:11;8.00;99.90
62573;DHT22;48626;51.678;5.806;2024-03-02T05:17:38;8.00;99.90
62573;DHT22;48626;51.678;5.806;2024-03-02T05:20:04;8.00;99.90
62573;DHT22;48626;51.678;5.806;2024-03-02T05:22:30;8.00;99.90
62573;DHT22;48626;51.678;5.806;2024-03-02T05:24:56;8.00;99.90
62573;DHT22;48626;51.678;5.806;2024-03-02T05:27:22;8.00;99.90
62573;DHT22;48626;51.678;5.806;2024-03-02T05:29:47;8.00;99.90
62573;DHT22;48626;51.678;5.806;2024-03-02T05:32:13;8.00;99.90
62573;DHT22;48626;51.678;5.806;2024-03-02T05:34:39;8.00;99.90
62573;DHT22;48626;51.678;5.806;2024-03-02T05:37:05;8.00;99.90
62573;DHT22;48626;51.678;5.806;2024-03-02T05:39:30;8.00;99.90
62573;DHT22;48626;51.678;5.806;2024-03-02T05:41:56;8.00;99.90
62573;DHT22;48626;51.678;5.806;2024-03-02T05:44:21;8.00;99.90
62573;DHT22;48626;51.678;5.806;2024-03-02T05:46:47;7.90;99.90
62573;DHT22;48626;51.678;5.806;2024-03-02T05:49:13;7.80;99.90
62573;DHT22;48626;51.678;5.806;2024-03-02T05:51:39;7.80;99.90
62573;DHT22;48626;51.678;5.806;2024-03-02T05:54:04;7.80;99.90
62573;DHT22;48626;51.678;5.806;2024-03-02T05:56:30;7.70;99.90
62573;DHT22;48626;51.678;5.806;2024-03-02T05:58:56;7.60;99.90
62573;DHT22;48626;51.678;5.806;2024-03-02T06:01:42;7.50;99.90
62573;DHT22;48626;51.678;5.806;2024-03-02T06:04:08;7.40;99.90
62573;DHT22;48626;51.678;5.806;2024-03-02T06:06:34;7.40;99.90
62573;DHT22;48626;51.678;5.806;2024-03-02T06:09:01;7.30;99.90
62573;DHT22;48626;51.678;5.806;2024-03-02T06:11:28;7.40;99.90
62573;DHT22;48626;51.678;5.806;2024-03-02T06:13:53;7.40;99.90
62573;DHT22;48626;51.678;5.806;2024-03-02T06:16:19;7.40;99.90
62573;DHT22;48626;51.678;5.806;2024-03-02T06:18:44;7.30;99.90
62573;DHT22;48626;51.678;5.806;2024-03-02T06:21:10;7.30;99.90
62573;DHT22;48626;51.678;5.806;2024-03-02T06:23:36;7.30;99.90
62573;DHT22;48626;51.678;5.806;2024-03-02T06:26:01;7.20;99.90
62573;DHT22;48626;51.678;5.806;2024-03-02T06:28:28;7.20;99.90
62573;DHT22;48626;51.678;5.806;2024-03-02T06:30:54;7.10;99.90
62573;DHT22;48626;51.678;5.806;2024-03-02T06:33:19;7.10;99.90
62573;DHT22;48626;51.678;5.806;2024-03-02T06:35:45;7.10;99.90
62573;DHT22;48626;51.678;5.806;2024-03-02T06:38:11;7.00;99.90
62573;DHT22;48626;51.678;5.806;2024-03-02T06:40:36;7.00;99.90
62573;DHT22;48626;51.678;5.806;2024-03-02T06:43:04;6.90;99.90
62573;DHT22;48626;51.678;5.806;2024-03-02T06:45:30;6.90;99.90
62573;DHT22;48626;51.678;5.806;2024-03-02T06:47:56;6.90;99.90
62573;DHT22;48626;51.678;5.806;2024-03-02T06:50:22;6.90;99.90
62573;DHT22;48626;51.678;5.806;2024-03-02T06:52:48;6.90;99.90
62573;DHT22;48626;51.678;5.806;2024-03-02T06:55:13;6.90;99.90
62573;DHT22;48626;51.678;5.806;2024-03-02T06:57:39;6.90;99.90
62573;DHT22;48626;51.678;5.806;2024-03-02T07:00:05;6.80;99.90
62573;DHT22;48626;51.678;5.806;2024-03-02T07:02:34;6.80;99.90
62573;DHT22;48626;51.678;5.806;2024-03-02T07:05:00;6.80;99.90
62573;DHT22;48626;51.678;5.806;2024-03-02T07:07:25;6.80;99.90
62573;DHT22;48626;51.678;5.806;2024-03-02T07:09:51;6.80;99.90
62573;DHT22;48626;51.678;5.806;2024-03-02T07:12:17;6.80;99.90
62573;DHT22;48626;51.678;5.806;2024-03-02T07:14:43;6.80;99.90
62573;DHT22;48626;51.678;5.806;2024-03-02T07:17:28;6.80;99.90
62573;DHT22;48626;51.678;5.806;2024-03-02T07:19:54;6.90;99.90
62573;DHT22;48626;51.678;5.806;2024-03-02T07:22:20;6.90;99.90
62573;DHT22;48626;51.678;5.806;2024-03-02T07:24:45;6.90;99.90
62573;DHT22;48626;51.678;5.806;2024-03-02T07:27:12;6.90;99.90
62573;DHT22;48626;51.678;5.806;2024-03-02T07:29:38;7.10;99.90
62573;DHT22;48626;51.678;5.806;2024-03-02T07:32:05;7.30;99.90
62573;DHT22;48626;51.678;5.806;2024-03-02T07:34:31;7.50;99.90
62573;DHT22;48626;51.678;5.806;2024-03-02T07:36:57;7.70;99.90
62573;DHT22;48626;51.678;5.806;2024-03-02T07:39:22;7.80;99.90
62573;DHT22;48626;51.678;5.806;2024-03-02T07:41:48;8.00;99.90
62573;DHT22;48626;51.678;5.806;2024-03-02T07:44:14;8.00;99.90
62573;DHT22;48626;51.678;5.806;2024-03-02T07:46:43;8.20;99.90
62573;DHT22;48626;51.678;5.806;2024-03-02T07:49:09;8.30;99.90
62573;DHT22;48626;51.678;5.806;2024-03-02T07:51:35;8.50;99.90
62573;DHT22;48626;51.678;5.806;2024-03-02T07:54:02;8.60;99.90
62573;DHT22;48626;51.678;5.806;2024-03-02T07:56:27;8.70;99.90
62573;DHT22;48626;51.678;5.806;2024-03-02T07:58:53;8.90;99.90
62573;DHT22;48626;51.678;5.806;2024-03-02T08:01:19;9.00;99.90
62573;DHT22;48626;51.678;5.806;2024-03-02T08:03:45;9.00;99.90
62573;DHT22;48626;51.678;5.806;2024-03-02T08:06:18;9.10;99.90
62573;DHT22;48626;51.678;5.806;2024-03-02T08:08:47;9.20;99.90
62573;DHT22;48626;51.678;5.806;2024-03-02T08:11:12;9.20;99.90
62573;DHT22;48626;51.678;5.806;2024-03-02T08:13:38;9.20;99.90
62573;DHT22;48626;51.678;5.806;2024-03-02T08:16:04;9.20;99.90
62573;DHT22;48626;51.678;5.806;2024-03-02T08:18:33;9.20;99.90
62573;DHT22;48626;51.678;5.806;2024-03-02T08:20:58;9.20;99.90
62573;DHT22;48626;51.678;5.806;2024-03-02T08:23:24;9.20;99.90
62573;DHT22;48626;51.678;5.806;2024-03-02T08:25:50;9.20;99.90
62573;DHT22;48626;51.678;5.806;2024-03-02T08:28:19;9.20;99.90
62573;DHT22;48626;51.678;5.806;2024-03-02T08:30:45;9.10;99.90
62573;DHT22;48626;51.678;5.806;2024-03-02T08:33:11;9.10;99.90
62573;DHT22;48626;51.678;5.806;2024-03-02T08:35:36;9.10;99.90
62573;DHT22;48626;51.678;5.806;2024-03-02T08:38:03;9.10;99.90
62573;DHT22;48626;51.678;5.806;2024-03-02T08:40:30;9.10;99.90
62573;DHT22;48626;51.678;5.806;2024-03-02T08:42:55;9.10;99.90
62573;DHT22;48626;51.678;5.806;2024-03-02T08:45:21;9.10;99.90
62573;DHT22;48626;51.678;5.806;2024-03-02T08:47:47;9.10;99.90
62573;DHT22;48626;51.678;5.806;2024-03-02T08:50:13;9.10;99.90
62573;DHT22;48626;51.678;5.806;2024-03-02T08:52:39;9.20;99.90
62573;DHT22;48626;51.678;5.806;2024-03-02T08:55:06;9.30;99.90
62573;DHT22;48626;51.678;5.806;2024-03-02T08:57:32;9.30;99.90
62573;DHT22;48626;51.678;5.806;2024-03-02T08:59:58;9.30;99.90
62573;DHT22;48626;51.678;5.806;2024-03-02T09:02:24;9.40;99.90
62573;DHT22;48626;51.678;5.806;2024-03-02T09:04:50;9.40;99.90
62573;DHT22;48626;51.678;5.806;2024-03-02T09:07:16;9.50;99.90
62573;DHT22;48626;51.678;5.806;2024-03-02T09:09:41;9.40;99.90
62573;DHT22;48626;51.678;5.806;2024-03-02T09:12:07;9.50;99.90
62573;DHT22;48626;51.678;5.806;2024-03-02T09:14:33;9.40;99.90
62573;DHT22;48626;51.678;5.806;2024-03-02T09:17:00;9.40;99.90
62573;DHT22;48626;51.678;5.806;2024-03-02T09:19:25;9.40;99.90
62573;DHT22;48626;51.678;5.806;2024-03-02T09:21:51;9.40;99.90
62573;DHT22;48626;51.678;5.806;2024-03-02T09:24:17;9.50;99.90
62573;DHT22;48626;51.678;5.806;2024-03-02T09:26:42;9.50;99.90
62573;DHT22;48626;51.678;5.806;2024-03-02T09:29:08;9.70;99.90
62573;DHT22;48626;51.678;5.806;2024-03-02T09:31:40;9.70;99.90
62573;DHT22;48626;51.678;5.806;2024-03-02T09:34:06;9.90;99.90
62573;DHT22;48626;51.678;5.806;2024-03-02T09:36:32;10.00;99.90
62573;DHT22;48626;51.678;5.806;2024-03-02T09:38:57;10.10;99.90
62573;DHT22;48626;51.678;5.806;2024-03-02T09:41:23;10.20;99.90
62573;DHT22;48626;51.678;5.806;2024-03-02T09:43:49;10.30;99.90
62573;DHT22;48626;51.678;5.806;2024-03-02T09:46:15;10.40;99.90
62573;DHT22;48626;51.678;5.806;2024-03-02T09:48:41;10.50;99.90
62573;DHT22;48626;51.678;5.806;2024-03-02T09:51:07;10.60;99.90
62573;DHT22;48626;51.678;5.806;2024-03-02T09:53:34;10.70;99.90
62573;DHT22;48626;51.678;5.806;2024-03-02T09:56:00;10.80;99.90
62573;DHT22;48626;51.678;5.806;2024-03-02T09:58:26;10.90;99.90
62573;DHT22;48626;51.678;5.806;2024-03-02T10:00:52;11.00;99.90
62573;DHT22;48626;51.678;5.806;2024-03-02T10:03:18;11.10;99.90
62573;DHT22;48626;51.678;5.806;2024-03-02T10:05:44;11.20;99.90
62573;DHT22;48626;51.678;5.806;2024-03-02T10:08:10;11.30;99.90
62573;DHT22;48626;51.678;5.806;2024-03-02T10:10:37;11.40;99.90
62573;DHT22;48626;51.678;5.806;2024-03-02T10:13:07;11.70;99.90
62573;DHT22;48626;51.678;5.806;2024-03-02T10:15:33;11.90;99.90
62573;DHT22;48626;51.678;5.806;2024-03-02T10:17:59;12.00;99.90
62573;DHT22;48626;51.678;5.806;2024-03-02T10:20:25;12.10;99.90
62573;DHT22;48626;51.678;5.806;2024-03-02T10:22:54;12.30;99.90
62573;DHT22;48626;51.678;5.806;2024-03-02T10:25:32;12.40;99.90
62573;DHT22;48626;51.678;5.806;2024-03-02T10:27:59;12.60;99.90
62573;DHT22;48626;51.678;5.806;2024-03-02T10:30:28;12.70;99.90
62573;DHT22;48626;51.678;5.806;2024-03-02T10:32:54;12.80;99.90
62573;DHT22;48626;51.678;5.806;2024-03-02T10:35:24;13.10;99.90
62573;DHT22;48626;51.678;5.806;2024-03-02T10:37:51;13.30;99.90
62573;DHT22;48626;51.678;5.806;2024-03-02T10:40:18;13.60;99.90
62573;DHT22;48626;51.678;5.806;2024-03-02T10:42:45;14.00;99.90
62573;DHT22;48626;51.678;5.806;2024-03-02T10:45:12;14.20;99.90
62573;DHT22;48626;51.678;5.806;2024-03-02T10:47:40;14.50;99.90
62573;DHT22;48626;51.678;5.806;2024-03-02T10:50:07;14.70;99.90
62573;DHT22;48626;51.678;5.806;2024-03-02T10:52:37;15.00;99.90
62573;DHT22;48626;51.678;5.806;2024-03-02T10:55:05;15.30;99.90
62573;DHT22;48626;51.678;5.806;2024-03-02T10:57:50;15.60;99.90
62573;DHT22;48626;51.678;5.806;2024-03-02T11:00:18;16.00;99.90
62573;DHT22;48626;51.678;5.806;2024-03-02T11:02:56;16.30;99.90
62573;DHT22;48626;51.678;5.806;2024-03-02T11:05:32;16.60;99.90
62573;DHT22;48626;51.678;5.806;2024-03-02T11:08:07;16.80;99.90
62573;DHT22;48626;51.678;5.806;2024-03-02T11:11:01;17.00;99.90
62573;DHT22;48626;51.678;5.806;2024-03-02T11:13:31;17.40;99.90
62573;DHT22;48626;51.678;5.806;2024-03-02T11:16:08;17.60;99.90
62573;DHT22;48626;51.678;5.806;2024-03-02T11:18:35;17.80;99.90
62573;DHT22;48626;51.678;5.806;2024-03-02T11:21:02;18.00;99.90
62573;DHT22;48626;51.678;5.806;2024-03-02T11:23:34;18.10;99.90
62573;DHT22;48626;51.678;5.806;2024-03-02T11:26:19;18.20;99.90
62573;DHT22;48626;51.678;5.806;2024-03-02T11:28:45;18.50;99.90
62573;DHT22;48626;51.678;5.806;2024-03-02T11:31:11;18.70;99.90
62573;DHT22;48626;51.678;5.806;2024-03-02T11:33:37;18.80;99.90
62573;DHT22;48626;51.678;5.806;2024-03-02T11:36:03;19.00;99.90
62573;DHT22;48626;51.678;5.806;2024-03-02T11:38:31;19.10;99.90
62573;DHT22;48626;51.678;5.806;2024-03-02T11:41:02;19.20;99.90
62573;DHT22;48626;51.678;5.806;2024-03-02T11:43:29;19.40;99.90
62573;DHT22;48626;51.678;5.806;2024-03-02T11:46:03;19.50;99.90
62573;DHT22;48626;51.678;5.806;2024-03-02T11:48:32;19.90;99.90
62573;DHT22;48626;51.678;5.806;2024-03-02T11:50:59;20.20;99.90
62573;DHT22;48626;51.678;5.806;2024-03-02T11:53:27;20.20;99.90
62573;DHT22;48626;51.678;5.806;2024-03-02T11:55:55;20.50;99.90
62573;DHT22;48626;51.678;5.806;2024-03-02T11:58:21;20.90;99.90
62573;DHT22;48626;51.678;5.806;2024-03-02T12:00:58;21.10;99.90
62573;DHT22;48626;51.678;5.806;2024-03-02T12:03:25;21.30;99.90
62573;DHT22;48626;51.678;5.806;2024-03-02T12:05:54;21.70;99.90
62573;DHT22;48626;51.678;5.806;2024-03-02T12:08:20;21.90;99.90
62573;DHT22;48626;51.678;5.806;2024-03-02T12:11:00;22.10;99.90
62573;DHT22;48626;51.678;5.806;2024-03-02T12:13:26;22.20;99.90
62573;DHT22;48626;51.678;5.806;2024-03-02T12:15:54;21.70;99.90
62573;DHT22;48626;51.678;5.806;2024-03-02T12:18:23;21.30;99.90
62573;DHT22;48626;51.678;5.806;2024-03-02T12:20:50;21.00;99.90
62573;DHT22;48626;51.678;5.806;2024-03-02T12:23:22;20.60;99.90
62573;DHT22;48626;51.678;5.806;2024-03-02T12:25:48;20.10;99.90
62573;DHT22;48626;51.678;5.806;2024-03-02T12:28:14;20.00;99.90
62573;DHT22;48626;51.678;5.806;2024-03-02T12:30:40;19.80;99.90
62573;DHT22;48626;51.678;5.806;2024-03-02T12:33:05;19.60;99.90
62573;DHT22;48626;51.678;5.806;2024-03-02T12:35:31;19.70;99.90
62573;DHT22;48626;51.678;5.806;2024-03-02T12:37:57;19.80;99.90
62573;DHT22;48626;51.678;5.806;2024-03-02T12:40:23;19.90;99.90
62573;DHT22;48626;51.678;5.806;2024-03-02T12:42:50;19.80;99.90
62573;DHT22;48626;51.678;5.806;2024-03-02T12:45:16;20.00;99.90
62573;DHT22;48626;51.678;5.806;2024-03-02T12:47:49;20.30;99.90
62573;DHT22;48626;51.678;5.806;2024-03-02T12:50:15;20.10;99.90
62573;DHT22;48626;51.678;5.806;2024-03-02T12:52:41;20.00;99.90
62573;DHT22;48626;51.678;5.806;2024-03-02T12:55:06;20.20;99.90
62573;DHT22;48626;51.678;5.806;2024-03-02T12:57:33;20.20;99.90
62573;DHT22;48626;51.678;5.806;2024-03-02T13:00:06;20.40;99.90
62573;DHT22;48626;51.678;5.806;2024-03-02T13:02:36;20.50;99.90
62573;DHT22;48626;51.678;5.806;2024-03-02T13:05:06;20.50;99.90
62573;DHT22;48626;51.678;5.806;2024-03-02T13:07:31;20.60;99.90
62573;DHT22;48626;51.678;5.806;2024-03-02T13:09:59;21.00;99.90
62573;DHT22;48626;51.678;5.806;2024-03-02T13:12:25;21.50;99.90
62573;DHT22;48626;51.678;5.806;2024-03-02T13:14:54;21.90;99.90
62573;DHT22;48626;51.678;5.806;2024-03-02T13:17:20;22.00;99.90
62573;DHT22;48626;51.678;5.806;2024-03-02T13:19:56;22.10;99.90
62573;DHT22;48626;51.678;5.806;2024-03-02T13:22:22;22.00;99.90
62573;DHT22;48626;51.678;5.806;2024-03-02T13:24:49;22.40;99.90
62573;DHT22;48626;51.678;5.806;2024-03-02T13:27:15;22.80;99.90
62573;DHT22;48626;51.678;5.806;2024-03-02T13:29:42;23.20;99.90
62573;DHT22;48626;51.678;5.806;2024-03-02T13:32:09;23.30;99.90
62573;DHT22;48626;51.678;5.806;2024-03-02T13:34:37;23.50;99.90
62573;DHT22;48626;51.678;5.806;2024-03-02T13:37:03;23.60;99.90
62573;DHT22;48626;51.678;5.806;2024-03-02T13:39:31;23.30;99.90
62573;DHT22;48626;51.678;5.806;2024-03-02T13:42:00;22.50;99.90
62573;DHT22;48626;51.678;5.806;2024-03-02T13:44:33;21.70;99.90
62573;DHT22;48626;51.678;5.806;2024-03-02T13:47:00;20.60;99.90
62573;DHT22;48626;51.678;5.806;2024-03-02T13:49:26;19.90;99.90
62573;DHT22;48626;51.678;5.806;2024-03-02T13:52:00;19.10;99.90
62573;DHT22;48626;51.678;5.806;2024-03-02T13:54:26;18.50;99.90
62573;DHT22;48626;51.678;5.806;2024-03-02T13:56:52;18.00;99.90
62573;DHT22;48626;51.678;5.806;2024-03-02T13:59:18;17.60;99.90
62573;DHT22;48626;51.678;5.806;2024-03-02T14:01:44;17.20;99.90
62573;DHT22;48626;51.678;5.806;2024-03-02T14:04:10;16.80;99.90
62573;DHT22;48626;51.678;5.806;2024-03-02T14:06:35;16.50;99.90
62573;DHT22;48626;51.678;5.806;2024-03-02T14:09:01;16.30;99.90
62573;DHT22;48626;51.678;5.806;2024-03-02T14:11:27;16.00;99.90
62573;DHT22;48626;51.678;5.806;2024-03-02T14:13:52;15.70;99.90
62573;DHT22;48626;51.678;5.806;2024-03-02T14:16:20;15.50;99.90
62573;DHT22;48626;51.678;5.806;2024-03-02T14:18:46;15.30;99.90
62573;DHT22;48626;51.678;5.806;2024-03-02T14:21:11;15.20;99.90
62573;DHT22;48626;51.678;5.806;2024-03-02T14:23:37;15.10;99.90
62573;DHT22;48626;51.678;5.806;2024-03-02T14:26:03;14.90;99.90
62573;DHT22;48626;51.678;5.806;2024-03-02T14:28:28;14.90;99.90
62573;DHT22;48626;51.678;5.806;2024-03-02T14:30:54;14.70;99.90
62573;DHT22;48626;51.678;5.806;2024-03-02T14:33:20;14.70;99.90
62573;DHT22;48626;51.678;5.806;2024-03-02T14:35:46;14.70;99.90
62573;DHT22;48626;51.678;5.806;2024-03-02T14:38:12;14.60;99.90
62573;DHT22;48626;51.678;5.806;2024-03-02T14:40:38;14.60;99.90
62573;DHT22;48626;51.678;5.806;2024-03-02T14:43:04;14.60;99.90
62573;DHT22;48626;51.678;5.806;2024-03-02T14:45:29;14.50;99.90
62573;DHT22;48626;51.678;5.806;2024-03-02T14:47:56;14.50;99.90
62573;DHT22;48626;51.678;5.806;2024-03-02T14:50:25;14.50;99.90
62573;DHT22;48626;51.678;5.806;2024-03-02T14:52:51;14.50;99.90
62573;DHT22;48626;51.678;5.806;2024-03-02T14:55:17;14.40;99.90
62573;DHT22;48626;51.678;5.806;2024-03-02T14:57:43;14.40;99.90
62573;DHT22;48626;51.678;5.806;2024-03-02T15:00:09;14.30;99.90
62573;DHT22;48626;51.678;5.806;2024-03-02T15:02:37;14.30;99.90
62573;DHT22;48626;51.678;5.806;2024-03-02T15:05:03;14.30;99.90
62573;DHT22;48626;51.678;5.806;2024-03-02T15:07:31;14.20;99.90
62573;DHT22;48626;51.678;5.806;2024-03-02T15:09:56;14.30;99.90
62573;DHT22;48626;51.678;5.806;2024-03-02T15:12:22;14.20;99.90
62573;DHT22;48626;51.678;5.806;2024-03-02T15:14:48;14.20;99.90
62573;DHT22;48626;51.678;5.806;2024-03-02T15:17:14;14.20;99.90
62573;DHT22;48626;51.678;5.806;2024-03-02T15:19:44;14.30;99.90
62573;DHT22;48626;51.678;5.806;2024-03-02T15:22:10;14.30;99.90
62573;DHT22;48626;51.678;5.806;2024-03-02T15:24:36;14.40;99.90
62573;DHT22;48626;51.678;5.806;2024-03-02T15:27:03;14.40;99.90
62573;DHT22;48626;51.678;5.806;2024-03-02T15:29:31;14.40;99.90
62573;DHT22;48626;51.678;5.806;2024-03-02T15:31:57;14.30;99.90
62573;DHT22;48626;51.678;5.806;2024-03-02T15:34:24;14.30;99.90
62573;DHT22;48626;51.678;5.806;2024-03-02T15:36:50;14.30;99.90
62573;DHT22;48626;51.678;5.806;2024-03-02T15:39:16;14.40;99.90
62573;DHT22;48626;51.678;5.806;2024-03-02T15:41:44;14.50;99.90